05U

Eureka Airport

Eureka, Nevada, USA
METAR K05U 200135Z AUTO 05007KT 10SM CLR 10/M08 A3036 RMK A01
Observed Flight Rules
Oct-20 @ 01:35 UTC (36 minutes ago) Visual Flight Rules
Wind Visibility Clouds
50° at 7 knots 10 miles
  • Clear skies
Temperatures Readings
Current 10°C / 50°F
Dewpoint -8°C / 18°F
Humidity 28%
Altimeter 30.36" Hg
Pressure 1028 hPa
Elevation 1816
METAR K05U 200135Z AUTO 05007KT 10SM CLR 10/M08 A3036 RMK A01
Observed Flight Rules
Oct-20 @ 01:35 UTC
(36 minutes ago)
VFR
Wind Visibility
50° at 7 knots 10 miles
Clouds
  • Clear skies
Temperature Dewpoint
10°C / 50°F -8°C / 18°F
Humidity Altimeter Pressure
28% 30.36" Hg 1028 hPa